Time;durP1;ratioP1;P1;durP2;ratioP2;P2;SDS_P1;SDS_P2;PMS_P1;PMS_P2;Temp;Humidity;BMP_temperature;BMP_pressure;BME280_temperature;BME280_humidity;BME280_pressure;Samples;Min_cycle;Max_cycle;Signal;HPM_P1;HPM_P2
2023/11/28 00:01:17;;;;;;;6.72;1.55;;;8.70;99.90;;;;;;4249318;27;20054;-59
2023/11/28 00:03:19;;;;;;;2.63;1.65;;;8.80;99.90;;;;;;4252670;27;20043;-59
2023/11/28 00:05:22;;;;;;;3.35;1.60;;;8.70;99.90;;;;;;4258289;27;20051;-62
2023/11/28 00:07:24;;;;;;;4.72;1.75;;;8.80;99.90;;;;;;4249147;27;20458;-59
2023/11/28 00:09:26;;;;;;;4.60;1.60;;;8.80;99.90;;;;;;4260593;27;20487;-59
2023/11/28 00:11:28;;;;;;;4.18;1.48;;;8.90;99.90;;;;;;4249601;27;20074;-59
2023/11/28 00:13:30;;;;;;;6.50;1.80;;;8.80;99.90;;;;;;4252873;27;20034;-59
2023/11/28 00:15:34;;;;;;;4.53;2.17;;;8.80;99.90;;;;;;4249059;27;20134;-60
2023/11/28 00:17:36;;;;;;;5.00;1.70;;;8.70;99.90;;;;;;4250033;27;20047;-59
2023/11/28 00:19:38;;;;;;;4.38;1.63;;;8.80;99.90;;;;;;4257344;27;20122;-59
2023/11/28 00:21:40;;;;;;;5.90;1.70;;;8.80;99.90;;;;;;4266339;27;20121;-59
2023/11/28 00:23:42;;;;;;;4.18;1.50;;;8.80;99.90;;;;;;4264748;27;20134;-66
2023/11/28 00:25:44;;;;;;;6.18;1.77;;;8.80;99.90;;;;;;4254345;27;20130;-59
2023/11/28 00:27:48;;;;;;;8.20;1.80;;;8.80;99.90;;;;;;4265558;27;20043;-59
2023/11/28 00:29:50;;;;;;;4.78;1.63;;;8.80;99.90;;;;;;4256437;27;20039;-59
2023/11/28 00:31:53;;;;;;;4.15;1.80;;;8.70;99.90;;;;;;4263283;27;20122;-59
2023/11/28 00:33:56;;;;;;;3.30;1.67;;;8.80;99.90;;;;;;4262175;27;20108;-59
2023/11/28 00:35:58;;;;;;;4.57;1.58;;;8.80;99.90;;;;;;4254350;27;20126;-59
2023/11/28 00:38:00;;;;;;;5.97;2.15;;;8.80;99.90;;;;;;4265785;27;20454;-59
2023/11/28 00:40:09;;;;;;;4.30;2.00;;;8.80;99.90;;;;;;4238181;27;20441;-62
2023/11/28 00:42:12;;;;;;;5.55;2.10;;;8.80;99.90;;;;;;4245171;27;20047;-60
2023/11/28 00:44:14;;;;;;;5.30;2.10;;;8.80;99.90;;;;;;4248629;27;20405;-61
2023/11/28 00:46:18;;;;;;;4.97;1.85;;;8.80;99.90;;;;;;4238246;27;20077;-62
2023/11/28 00:48:22;;;;;;;4.50;1.83;;;8.70;99.90;;;;;;4249647;27;20047;-60
2023/11/28 00:50:24;;;;;;;8.52;1.50;;;8.80;99.90;;;;;;4244608;27;20051;-59
2023/11/28 00:52:26;;;;;;;5.35;1.95;;;8.70;99.90;;;;;;4236284;27;20516;-59
2023/11/28 00:54:29;;;;;;;4.35;1.73;;;8.70;99.90;;;;;;4241257;27;20170;-59
2023/11/28 00:56:31;;;;;;;6.00;1.60;;;8.70;99.90;;;;;;4235453;27;20118;-59
2023/11/28 00:58:33;;;;;;;4.45;1.88;;;8.80;99.90;;;;;;4247597;27;20059;-59
2023/11/28 01:00:35;;;;;;;4.93;1.70;;;8.80;99.90;;;;;;4241892;27;20118;-59
2023/11/28 01:02:38;;;;;;;4.55;1.83;;;8.80;99.90;;;;;;4242796;27;20051;-58
2023/11/28 01:04:42;;;;;;;4.32;1.73;;;8.70;99.90;;;;;;4246864;27;20043;-60
2023/11/28 01:06:44;;;;;;;3.58;1.65;;;8.80;99.90;;;;;;4238819;27;20051;-60
2023/11/28 01:08:46;;;;;;;5.00;1.77;;;8.80;99.90;;;;;;4250031;27;20078;-60
2023/11/28 01:10:50;;;;;;;7.63;1.65;;;8.70;99.90;;;;;;4224250;28;20142;-59
2023/11/28 01:12:52;;;;;;;4.78;2.15;;;8.80;99.90;;;;;;4241646;27;20353;-60
2023/11/28 01:14:54;;;;;;;3.88;1.80;;;8.80;99.90;;;;;;4246397;27;20526;-59
2023/11/28 01:16:56;;;;;;;3.97;1.70;;;8.80;99.90;;;;;;4235552;27;20047;-59
2023/11/28 01:18:58;;;;;;;7.15;1.70;;;8.70;99.90;;;;;;4247699;27;20116;-59
2023/11/28 01:21:02;;;;;;;2.55;1.63;;;8.70;99.90;;;;;;4243403;27;20126;-58
2023/11/28 01:23:04;;;;;;;3.65;1.67;;;8.60;99.90;;;;;;4238544;27;20054;-59
2023/11/28 01:25:07;;;;;;;3.22;1.65;;;8.60;99.90;;;;;;4230730;28;20051;-59
2023/11/28 01:27:09;;;;;;;4.85;1.98;;;8.50;99.90;;;;;;4234911;27;20055;-59
2023/11/28 01:29:11;;;;;;;2.70;1.45;;;8.60;99.90;;;;;;4248218;27;20446;-59
2023/11/28 01:31:13;;;;;;;4.55;1.42;;;8.60;99.90;;;;;;4241474;27;20130;-59
2023/11/28 01:33:15;;;;;;;4.13;1.48;;;8.60;99.90;;;;;;4240431;27;20676;-59
2023/11/28 01:35:18;;;;;;;5.47;1.42;;;8.60;99.90;;;;;;4247952;27;20127;-60
2023/11/28 01:37:21;;;;;;;2.47;1.30;;;8.70;99.90;;;;;;4236382;27;20048;-59
2023/11/28 01:39:23;;;;;;;6.65;2.40;;;8.70;99.90;;;;;;4244775;27;20049;-59
2023/11/28 01:41:25;;;;;;;7.13;1.58;;;8.70;99.90;;;;;;4245015;27;20118;-61
2023/11/28 01:43:29;;;;;;;5.15;1.33;;;8.80;99.90;;;;;;4237243;27;20047;-59
2023/11/28 01:45:31;;;;;;;4.40;1.70;;;8.80;99.90;;;;;;4247599;27;20114;-59
2023/11/28 01:47:33;;;;;;;3.05;1.40;;;8.80;99.90;;;;;;4243095;27;20558;-59
2023/11/28 01:49:37;;;;;;;2.92;1.48;;;8.80;99.90;;;;;;4232699;27;20047;-59
2023/11/28 01:51:40;;;;;;;3.72;1.60;;;8.80;99.90;;;;;;4231783;28;20514;-59
2023/11/28 01:53:43;;;;;;;3.85;1.45;;;8.70;99.90;;;;;;4245974;27;20047;-56
2023/11/28 01:55:45;;;;;;;4.60;1.80;;;8.80;99.90;;;;;;4247474;27;20397;-56
2023/11/28 01:57:48;;;;;;;2.92;1.30;;;8.80;99.90;;;;;;4237854;27;20036;-55
2023/11/28 01:59:56;;;;;;;4.63;1.63;;;8.80;99.90;;;;;;4245315;27;20047;-59
2023/11/28 02:01:58;;;;;;;3.25;1.45;;;8.70;99.90;;;;;;4245944;27;20126;-56
2023/11/28 02:04:01;;;;;;;4.35;1.42;;;8.80;99.90;;;;;;4236008;27;20047;-59
2023/11/28 02:06:03;;;;;;;2.35;1.45;;;8.70;99.90;;;;;;4245954;27;20047;-59
2023/11/28 02:08:10;;;;;;;3.83;1.48;;;8.70;99.90;;;;;;4237657;27;20150;-58
2023/11/28 02:10:14;;;;;;;3.85;1.77;;;8.80;99.90;;;;;;4244588;27;20047;-59
2023/11/28 02:12:16;;;;;;;4.68;1.98;;;8.70;99.90;;;;;;4245498;27;20293;-59
2023/11/28 02:14:18;;;;;;;2.88;1.60;;;8.60;99.90;;;;;;4235570;27;20039;-59
2023/11/28 02:16:20;;;;;;;5.40;1.40;;;8.50;99.90;;;;;;4247119;27;20459;-59
2023/11/28 02:18:22;;;;;;;4.82;1.65;;;8.60;99.90;;;;;;4239807;27;20043;-59
2023/11/28 02:20:24;;;;;;;3.83;2.03;;;8.70;99.90;;;;;;4247284;27;20047;-59
2023/11/28 02:22:27;;;;;;;4.40;1.67;;;8.80;99.90;;;;;;4244446;27;20073;-59
2023/11/28 02:24:32;;;;;;;4.50;1.75;;;8.90;99.90;;;;;;4241628;28;20036;-59
2023/11/28 02:26:36;;;;;;;5.65;2.08;;;8.90;99.90;;;;;;4230441;28;20145;-59
2023/11/28 02:28:38;;;;;;;5.35;2.05;;;8.80;99.90;;;;;;4237848;28;20039;-59
2023/11/28 02:30:40;;;;;;;6.25;1.90;;;8.90;99.90;;;;;;4240442;27;20115;-59
2023/11/28 02:32:42;;;;;;;3.13;1.65;;;8.90;99.90;;;;;;4245971;27;20043;-60
2023/11/28 02:34:44;;;;;;;5.25;2.10;;;8.80;99.90;;;;;;4242338;28;20052;-60
2023/11/28 02:36:47;;;;;;;9.93;2.22;;;8.80;99.90;;;;;;4232048;28;20048;-60
2023/11/28 02:38:49;;;;;;;5.93;2.20;;;8.60;99.90;;;;;;4243331;27;20125;-59
2023/11/28 02:40:51;;;;;;;6.03;2.40;;;8.80;99.90;;;;;;4254123;27;20043;-59
2023/11/28 02:42:55;;;;;;;5.30;2.08;;;8.80;99.90;;;;;;4248343;27;20043;-59
2023/11/28 02:44:57;;;;;;;5.18;2.20;;;8.70;99.90;;;;;;4258880;27;20043;-59
2023/11/28 02:47:00;;;;;;;4.97;1.85;;;8.70;99.90;;;;;;4257195;27;20049;-59
2023/11/28 02:49:02;;;;;;;4.97;1.92;;;8.70;99.90;;;;;;4241351;28;20077;-59
2023/11/28 02:51:05;;;;;;;5.05;2.40;;;8.70;99.90;;;;;;4254126;27;20080;-59
2023/11/28 02:53:08;;;;;;;7.07;2.38;;;8.80;99.90;;;;;;4247116;27;20078;-59
2023/11/28 02:55:10;;;;;;;5.82;2.58;;;8.80;99.90;;;;;;4261366;27;20066;-59
2023/11/28 02:57:12;;;;;;;5.03;2.13;;;8.70;99.90;;;;;;4268394;27;20053;-60
2023/11/28 02:59:15;;;;;;;6.65;2.70;;;8.70;99.90;;;;;;4264769;27;20112;-65
2023/11/28 03:01:18;;;;;;;6.45;2.40;;;8.70;99.90;;;;;;4260370;27;20070;-59
2023/11/28 03:03:20;;;;;;;6.38;2.40;;;8.70;99.90;;;;;;4250337;27;20043;-59
2023/11/28 03:05:22;;;;;;;5.53;2.65;;;8.70;99.90;;;;;;4254041;27;20043;-59
2023/11/28 03:07:24;;;;;;;8.23;2.72;;;8.70;99.90;;;;;;4267333;27;20345;-59
2023/11/28 03:09:26;;;;;;;7.43;2.40;;;8.60;99.90;;;;;;4264021;27;20114;-59
2023/11/28 03:11:28;;;;;;;5.10;2.55;;;8.60;99.90;;;;;;4257559;27;20070;-59
2023/11/28 03:13:30;;;;;;;6.00;2.35;;;8.60;99.90;;;;;;4267272;27;20051;-60
2023/11/28 03:15:34;;;;;;;7.32;2.42;;;8.60;99.90;;;;;;4256734;27;20517;-59
2023/11/28 03:17:36;;;;;;;6.65;2.40;;;8.70;99.90;;;;;;4265553;27;20576;-59
2023/11/28 03:19:38;;;;;;;7.32;2.67;;;8.70;99.90;;;;;;4265466;27;20072;-59
2023/11/28 03:21:40;;;;;;;4.88;2.42;;;8.60;99.90;;;;;;4260975;27;20096;-59
2023/11/28 03:23:42;;;;;;;3.83;2.30;;;8.50;99.90;;;;;;4249779;27;20099;-59
2023/11/28 03:25:44;;;;;;;8.27;2.40;;;8.60;99.90;;;;;;4259735;27;20035;-59
2023/11/28 03:27:46;;;;;;;8.43;3.00;;;8.60;99.90;;;;;;4234603;27;20419;-59
2023/11/28 03:29:48;;;;;;;8.10;3.20;;;8.50;99.90;;;;;;4250995;27;20411;-59
2023/11/28 03:31:51;;;;;;;8.60;3.50;;;8.40;99.90;;;;;;4255047;27;20039;-59
2023/11/28 03:33:53;;;;;;;5.97;3.22;;;8.50;99.90;;;;;;4260287;27;20046;-59
2023/11/28 03:35:56;;;;;;;4.72;2.70;;;8.50;99.90;;;;;;4258185;27;20068;-59
2023/11/28 03:37:58;;;;;;;7.53;3.28;;;8.40;99.90;;;;;;4254164;27;20078;-59
2023/11/28 03:40:00;;;;;;;11.85;2.97;;;8.50;99.90;;;;;;4251915;27;20386;-59
2023/11/28 03:42:03;;;;;;;5.80;2.80;;;8.50;99.90;;;;;;4243084;27;20044;-59
2023/11/28 03:44:05;;;;;;;7.18;2.83;;;8.50;99.90;;;;;;4231473;28;20616;-59
2023/11/28 03:46:07;;;;;;;5.65;2.63;;;8.40;99.90;;;;;;4256278;27;20111;-59
2023/11/28 03:48:10;;;;;;;7.00;2.80;;;8.40;99.90;;;;;;4266608;27;20046;-59
2023/11/28 03:50:13;;;;;;;6.10;2.70;;;8.40;99.90;;;;;;4264527;27;20055;-59
2023/11/28 03:52:15;;;;;;;7.05;2.80;;;8.40;99.90;;;;;;4254765;27;20039;-59
2023/11/28 03:54:19;;;;;;;15.52;2.88;;;8.40;99.90;;;;;;4266322;27;20125;-59
2023/11/28 03:56:21;;;;;;;7.57;3.00;;;8.40;99.90;;;;;;4260159;27;20035;-59
2023/11/28 03:58:23;;;;;;;12.00;3.08;;;8.40;99.90;;;;;;4259650;27;20045;-59
2023/11/28 04:00:26;;;;;;;7.75;2.85;;;8.50;99.90;;;;;;4265947;27;20046;-59
2023/11/28 04:02:28;;;;;;;7.22;2.60;;;8.50;99.90;;;;;;4253984;27;20122;-59
2023/11/28 04:04:31;;;;;;;6.72;2.50;;;8.50;99.90;;;;;;4266222;27;20276;-60
2023/11/28 04:06:34;;;;;;;9.57;2.90;;;8.50;99.90;;;;;;4259961;27;20049;-59
2023/11/28 04:08:36;;;;;;;6.70;2.95;;;8.50;99.90;;;;;;4240556;27;20526;-59
2023/11/28 04:10:38;;;;;;;11.27;3.08;;;8.60;99.90;;;;;;4266472;27;20396;-58
2023/11/28 04:12:40;;;;;;;8.85;2.95;;;8.40;99.90;;;;;;4261581;27;20091;-58
2023/11/28 04:14:42;;;;;;;5.10;2.53;;;8.30;99.90;;;;;;4249276;27;20062;-59
2023/11/28 04:16:44;;;;;;;11.98;2.65;;;8.40;99.90;;;;;;4252763;27;20491;-58
2023/11/28 04:18:49;;;;;;;5.60;2.70;;;8.30;99.90;;;;;;4264992;27;20049;-59
2023/11/28 04:20:52;;;;;;;9.20;2.85;;;8.30;99.90;;;;;;4266723;27;20047;-60
2023/11/28 04:22:54;;;;;;;5.07;2.38;;;8.30;99.90;;;;;;4263999;27;20046;-60
2023/11/28 04:24:56;;;;;;;6.03;2.30;;;8.30;99.90;;;;;;4251675;27;20130;-60
2023/11/28 04:26:59;;;;;;;8.80;1.95;;;8.30;99.90;;;;;;4252754;27;20073;-62
2023/11/28 04:29:01;;;;;;;7.70;1.92;;;8.20;99.90;;;;;;4260569;27;20096;-58
2023/11/28 04:31:03;;;;;;;5.25;2.45;;;8.20;99.90;;;;;;4240588;27;20556;-60
2023/11/28 04:33:05;;;;;;;5.55;2.03;;;8.20;99.90;;;;;;4256623;27;20607;-59
2023/11/28 04:35:08;;;;;;;8.18;2.08;;;8.20;99.90;;;;;;4249719;27;20051;-59
2023/11/28 04:37:12;;;;;;;7.13;2.83;;;8.20;99.90;;;;;;4250255;27;20038;-61
2023/11/28 04:39:14;;;;;;;5.68;2.30;;;8.30;99.90;;;;;;4254432;27;20051;-57
2023/11/28 04:41:16;;;;;;;9.20;2.35;;;8.20;99.90;;;;;;4265566;27;20047;-59
2023/11/28 04:43:18;;;;;;;10.57;2.20;;;8.20;99.90;;;;;;4255936;27;20082;-58
2023/11/28 04:45:21;;;;;;;6.40;2.10;;;8.20;99.90;;;;;;4262637;27;20441;-59
2023/11/28 04:47:23;;;;;;;4.88;1.95;;;8.20;99.90;;;;;;4243363;27;20047;-58
2023/11/28 04:49:25;;;;;;;3.75;1.70;;;8.10;99.90;;;;;;4260585;27;20043;-58
2023/11/28 04:51:27;;;;;;;5.82;1.60;;;8.10;99.90;;;;;;4231913;28;20048;-63
2023/11/28 04:53:31;;;;;;;4.97;1.80;;;8.20;99.90;;;;;;4256964;27;20047;-58
2023/11/28 04:55:34;;;;;;;4.55;1.70;;;8.20;99.90;;;;;;4265693;27;20389;-59
2023/11/28 04:57:36;;;;;;;3.92;1.40;;;8.30;99.90;;;;;;4264021;27;20078;-59
2023/11/28 04:59:39;;;;;;;5.25;1.55;;;8.40;99.90;;;;;;4253872;27;20030;-59
2023/11/28 05:01:43;;;;;;;5.82;1.60;;;8.30;99.90;;;;;;4265401;27;20460;-59
2023/11/28 05:03:45;;;;;;;4.93;1.45;;;8.40;99.90;;;;;;4257521;27;20049;-59
2023/11/28 05:05:47;;;;;;;5.43;1.40;;;8.30;99.90;;;;;;4260093;27;20125;-59
2023/11/28 05:07:50;;;;;;;4.53;1.30;;;8.40;99.90;;;;;;4264956;27;20099;-61
2023/11/28 05:09:53;;;;;;;2.88;1.23;;;8.40;99.90;;;;;;4256585;27;20066;-60
2023/11/28 05:11:55;;;;;;;4.50;1.30;;;8.40;99.90;;;;;;4267618;27;20065;-62
2023/11/28 05:13:58;;;;;;;4.60;1.30;;;8.30;99.90;;;;;;4261750;27;20082;-64
2023/11/28 05:16:00;;;;;;;6.90;1.30;;;8.40;99.90;;;;;;4260954;27;20043;-62
2023/11/28 05:18:02;;;;;;;5.75;1.20;;;8.30;99.90;;;;;;4266212;27;20054;-59
2023/11/28 05:20:05;;;;;;;5.57;1.42;;;8.30;99.90;;;;;;4260942;27;20392;-59
2023/11/28 05:22:07;;;;;;;3.05;1.20;;;8.20;99.90;;;;;;4267005;27;20510;-64
2023/11/28 05:24:09;;;;;;;3.58;1.33;;;8.20;99.90;;;;;;4261191;27;20055;-59
2023/11/28 05:26:13;;;;;;;8.85;1.60;;;8.30;99.90;;;;;;4257436;27;20118;-59
2023/11/28 05:28:15;;;;;;;4.65;1.25;;;8.30;99.90;;;;;;4264853;27;20045;-59
2023/11/28 05:30:17;;;;;;;2.35;1.30;;;8.30;99.90;;;;;;4240451;27;20047;-62
2023/11/28 05:32:19;;;;;;;1.98;1.05;;;8.30;99.90;;;;;;4265338;27;20066;-59
2023/11/28 05:34:21;;;;;;;3.78;1.70;;;8.30;99.90;;;;;;4258777;27;20043;-59
2023/11/28 05:36:24;;;;;;;9.10;1.23;;;8.30;99.90;;;;;;4256846;27;20074;-59
2023/11/28 05:38:26;;;;;;;3.60;1.48;;;8.20;99.90;;;;;;4229493;28;20436;-59
2023/11/28 05:40:28;;;;;;;5.05;1.45;;;8.20;99.90;;;;;;4240997;27;20058;-60
2023/11/28 05:42:32;;;;;;;5.20;1.50;;;8.30;99.90;;;;;;4248335;27;20076;-62
2023/11/28 05:44:34;;;;;;;2.85;1.42;;;8.20;99.90;;;;;;4249556;27;20063;-59
2023/11/28 05:46:36;;;;;;;4.47;1.60;;;8.30;99.90;;;;;;4245897;27;20035;-59
2023/11/28 05:48:38;;;;;;;2.08;1.58;;;8.30;99.90;;;;;;4264836;27;20051;-59
2023/11/28 05:50:40;;;;;;;7.93;1.70;;;8.30;99.90;;;;;;4260319;27;20107;-59
2023/11/28 05:52:42;;;;;;;3.30;1.67;;;8.30;99.90;;;;;;4249910;27;20043;-59
2023/11/28 05:54:44;;;;;;;4.18;1.48;;;8.30;99.90;;;;;;4259758;27;20042;-60
2023/11/28 05:56:47;;;;;;;5.60;1.60;;;8.40;99.90;;;;;;4252879;27;20043;-59
2023/11/28 05:58:50;;;;;;;5.95;2.17;;;8.50;99.90;;;;;;4246107;27;20042;-59
2023/11/28 06:00:52;;;;;;;4.30;1.65;;;8.50;99.90;;;;;;4255316;27;20050;-59
2023/11/28 06:02:54;;;;;;;2.70;1.48;;;8.40;99.90;;;;;;4261643;27;20717;-64
2023/11/28 06:04:56;;;;;;;3.33;1.55;;;8.40;99.90;;;;;;4263456;27;20039;-59
2023/11/28 06:07:00;;;;;;;6.10;1.52;;;8.20;99.90;;;;;;4253263;27;20186;-58
2023/11/28 06:09:02;;;;;;;7.75;1.50;;;8.20;99.90;;;;;;4264575;27;20043;-58
2023/11/28 06:11:04;;;;;;;2.90;1.67;;;8.20;99.90;;;;;;4256278;27;20047;-59
2023/11/28 06:13:07;;;;;;;4.47;1.65;;;8.10;99.90;;;;;;4260265;27;20053;-59
2023/11/28 06:15:10;;;;;;;2.72;1.50;;;8.00;99.90;;;;;;4262535;27;20138;-59
2023/11/28 06:17:12;;;;;;;4.68;1.40;;;8.10;99.90;;;;;;4252886;27;20046;-59
2023/11/28 06:19:15;;;;;;;4.75;1.77;;;8.10;99.90;;;;;;4264304;27;20091;-59
2023/11/28 06:21:19;;;;;;;4.05;1.60;;;8.00;99.90;;;;;;4259786;27;20520;-59
2023/11/28 06:23:21;;;;;;;4.28;1.70;;;8.00;99.90;;;;;;4253130;27;20078;-62
2023/11/28 06:25:24;;;;;;;4.18;1.80;;;8.00;99.90;;;;;;4250628;27;20035;-68
2023/11/28 06:27:26;;;;;;;3.10;1.73;;;8.00;99.80;;;;;;4261188;27;20053;-60
2023/11/28 06:29:28;;;;;;;4.25;1.75;;;7.80;99.90;;;;;;4250668;27;20085;-60
2023/11/28 06:31:31;;;;;;;4.45;1.75;;;7.70;99.90;;;;;;4260021;27;20038;-60
2023/11/28 06:33:33;;;;;;;4.60;1.98;;;7.70;99.90;;;;;;4260926;27;20411;-59
2023/11/28 06:35:36;;;;;;;4.82;2.55;;;7.60;99.90;;;;;;4267383;27;20042;-58
2023/11/28 06:37:38;;;;;;;3.83;2.10;;;7.60;99.90;;;;;;4255710;27;20051;-59
2023/11/28 06:39:41;;;;;;;2.53;1.65;;;7.40;99.90;;;;;;4268469;27;20051;-63
2023/11/28 06:41:45;;;;;;;8.38;2.35;;;7.50;99.90;;;;;;4263674;27;20043;-63
2023/11/28 06:43:47;;;;;;;3.28;1.92;;;7.50;99.90;;;;;;4261182;27;20057;-59
2023/11/28 06:45:49;;;;;;;4.07;2.00;;;7.60;99.90;;;;;;4267982;27;20069;-59
2023/11/28 06:47:53;;;;;;;5.22;2.13;;;7.60;99.90;;;;;;4263473;27;20049;-59
2023/11/28 06:49:56;;;;;;;7.25;2.53;;;7.50;99.70;;;;;;4250765;27;20051;-59
2023/11/28 06:52:02;;;;;;;5.10;2.10;;;7.50;99.90;;;;;;4254584;27;20043;-59
2023/11/28 06:54:04;;;;;;;6.55;2.53;;;7.50;99.90;;;;;;4266289;27;20038;-59
2023/11/28 06:56:07;;;;;;;5.93;2.70;;;7.50;99.90;;;;;;4249380;27;20508;-59
2023/11/28 06:58:09;;;;;;;3.10;2.45;;;7.50;99.90;;;;;;4254578;27;20063;-59
2023/11/28 07:00:12;;;;;;;5.75;2.40;;;7.50;99.90;;;;;;4250282;27;20051;-59
2023/11/28 07:02:16;;;;;;;4.70;2.42;;;7.50;99.90;;;;;;4253565;27;20457;-59
2023/11/28 07:04:20;;;;;;;6.07;2.72;;;7.50;99.90;;;;;;4259529;27;20055;-59
2023/11/28 07:06:22;;;;;;;4.03;2.03;;;7.50;99.90;;;;;;4251009;27;20050;-59
2023/11/28 07:08:24;;;;;;;2.88;2.17;;;7.50;99.90;;;;;;4244951;27;20047;-59
2023/11/28 07:10:26;;;;;;;4.93;2.38;;;7.50;99.90;;;;;;4251238;27;20047;-59
2023/11/28 07:12:29;;;;;;;5.40;2.92;;;7.60;99.90;;;;;;4252982;27;20047;-60
2023/11/28 07:14:31;;;;;;;3.65;2.10;;;7.70;99.90;;;;;;4260709;27;20047;-59
2023/11/28 07:16:34;;;;;;;4.55;2.38;;;7.60;99.90;;;;;;4250377;27;20047;-59
2023/11/28 07:18:36;;;;;;;4.03;2.15;;;7.70;99.90;;;;;;4258717;27;20468;-59
2023/11/28 07:20:40;;;;;;;3.67;2.42;;;7.70;99.90;;;;;;4266924;27;20098;-59
2023/11/28 07:22:42;;;;;;;6.20;2.47;;;7.70;99.90;;;;;;4262972;27;20046;-59
2023/11/28 07:24:47;;;;;;;5.38;2.65;;;7.70;99.90;;;;;;4261121;27;20043;-59
2023/11/28 07:26:49;;;;;;;;;;;7.70;99.90;;;;;;4250084;27;20055;-60
2023/11/28 07:28:51;;;;;;;6.32;2.80;;;7.60;99.80;;;;;;4260367;27;20380;-60
2023/11/28 07:30:53;;;;;;;5.20;2.67;;;7.60;99.90;;;;;;4260544;27;20035;-59
2023/11/28 07:32:55;;;;;;;4.40;2.75;;;7.50;99.90;;;;;;4264269;27;20045;-59
2023/11/28 07:34:57;;;;;;;5.15;2.60;;;7.60;99.90;;;;;;4256104;27;20051;-59
2023/11/28 07:37:01;;;;;;;14.93;3.95;;;7.50;99.90;;;;;;4267212;27;20137;-59
2023/11/28 07:39:09;;;;;;;9.45;3.30;;;7.70;99.90;;;;;;4262579;27;20047;-60
2023/11/28 07:41:13;;;;;;;5.30;2.65;;;7.70;99.90;;;;;;4252317;27;20039;-59
2023/11/28 07:43:15;;;;;;;7.82;2.47;;;7.70;99.90;;;;;;4250696;27;20035;-59
2023/11/28 07:45:17;;;;;;;9.90;3.63;;;7.70;99.90;;;;;;4260180;27;20054;-59
2023/11/28 07:47:20;;;;;;;7.18;3.13;;;7.70;99.80;;;;;;4244190;27;20055;-60
2023/11/28 07:49:22;;;;;;;10.07;3.10;;;7.70;99.70;;;;;;4262203;27;20404;-60
2023/11/28 07:51:24;;;;;;;9.15;3.13;;;7.60;99.60;;;;;;4266982;27;20042;-59
2023/11/28 07:53:27;;;;;;;6.72;3.45;;;7.50;99.50;;;;;;4266230;27;20052;-62
2023/11/28 07:55:29;;;;;;;6.18;3.40;;;7.40;99.30;;;;;;4264848;27;20529;-59
2023/11/28 07:57:31;;;;;;;10.65;3.95;;;7.40;99.70;;;;;;4266771;27;20062;-58
2023/11/28 07:59:34;;;;;;;4.65;3.53;;;7.40;99.50;;;;;;4262041;27;20035;-60
2023/11/28 08:01:38;;;;;;;8.13;3.58;;;7.40;99.90;;;;;;4255264;27;20043;-59
2023/11/28 08:03:41;;;;;;;4.85;3.72;;;7.40;99.90;;;;;;4250449;27;20043;-58
2023/11/28 08:05:43;;;;;;;14.18;4.50;;;7.40;99.80;;;;;;4261111;27;20487;-58
2023/11/28 08:07:45;;;;;;;12.35;4.63;;;7.30;99.90;;;;;;4249343;27;20467;-58
2023/11/28 08:09:49;;;;;;;16.70;5.32;;;7.40;99.90;;;;;;4254879;27;20122;-59
2023/11/28 08:11:51;;;;;;;13.32;5.28;;;8.00;99.90;;;;;;4265993;27;20079;-57
2023/11/28 08:13:53;;;;;;;14.73;5.43;;;8.20;99.90;;;;;;4266069;27;20277;-58
2023/11/28 08:15:57;;;;;;;14.32;4.50;;;8.00;99.00;;;;;;4266249;27;20130;-58
2023/11/28 08:18:00;;;;;;;6.20;3.45;;;7.90;99.90;;;;;;4266637;27;20053;-58
2023/11/28 08:20:03;;;;;;;12.43;3.83;;;7.80;99.90;;;;;;4266219;27;20046;-58
2023/11/28 08:22:06;;;;;;;5.43;3.90;;;7.60;99.80;;;;;;4266319;27;20087;-60
2023/11/28 08:24:08;;;;;;;11.55;5.05;;;7.60;99.90;;;;;;4265756;27;20046;-59
2023/11/28 08:26:11;;;;;;;12.43;5.20;;;7.70;99.90;;;;;;4266426;27;20086;-59
2023/11/28 08:28:14;;;;;;;14.18;6.65;;;7.70;99.90;;;;;;4266219;27;20043;-59
2023/11/28 08:30:16;;;;;;;9.43;4.70;;;7.70;99.70;;;;;;4266152;27;20038;-59
2023/11/28 08:32:18;;;;;;;9.05;6.10;;;7.50;99.90;;;;;;4266440;27;20057;-59
2023/11/28 08:34:21;;;;;;;10.80;4.25;;;7.50;99.90;;;;;;4258404;27;20388;-63
2023/11/28 08:36:23;;;;;;;8.05;3.60;;;7.60;99.90;;;;;;4250167;27;20050;-59
2023/11/28 08:38:25;;;;;;;8.40;4.47;;;7.70;99.90;;;;;;4248892;27;20449;-59
2023/11/28 08:40:27;;;;;;;14.07;4.55;;;7.80;99.60;;;;;;4248947;27;20115;-59
2023/11/28 08:42:31;;;;;;;8.63;4.05;;;7.80;99.60;;;;;;4248970;27;20042;-59
2023/11/28 08:44:34;;;;;;;19.40;4.78;;;7.90;99.90;;;;;;4248830;27;20043;-60
2023/11/28 08:46:37;;;;;;;8.50;3.67;;;7.90;99.60;;;;;;4255490;27;20046;-59
2023/11/28 08:48:40;;;;;;;16.33;5.32;;;7.90;99.60;;;;;;4266664;27;20045;-58
2023/11/28 08:50:42;;;;;;;22.27;5.38;;;8.00;99.50;;;;;;4266000;27;20145;-59
2023/11/28 08:52:44;;;;;;;21.15;4.97;;;7.90;99.60;;;;;;4265214;27;20043;-60
2023/11/28 08:54:47;;;;;;;15.52;4.40;;;8.00;99.40;;;;;;4265650;27;20122;-59
2023/11/28 08:56:49;;;;;;;18.25;4.93;;;8.00;99.70;;;;;;4267034;27;20122;-61
2023/11/28 08:58:53;;;;;;;12.32;4.20;;;8.00;99.90;;;;;;4267094;27;20050;-59
2023/11/28 09:00:55;;;;;;;8.68;3.30;;;8.10;99.90;;;;;;4266923;27;20047;-60
2023/11/28 09:02:57;;;;;;;8.48;4.30;;;8.10;99.70;;;;;;4266693;27;20544;-59
2023/11/28 09:05:00;;;;;;;4.72;3.30;;;8.00;99.40;;;;;;4266078;27;20039;-60
2023/11/28 09:07:03;;;;;;;8.63;4.13;;;7.90;99.40;;;;;;4265715;27;20043;-59
2023/11/28 09:09:05;;;;;;;8.65;5.13;;;7.80;99.90;;;;;;4246939;27;20057;-59
2023/11/28 09:11:07;;;;;;;11.50;4.93;;;7.80;99.90;;;;;;4265733;27;20046;-59
2023/11/28 09:13:09;;;;;;;14.30;4.65;;;7.80;99.70;;;;;;4247285;27;20051;-59
2023/11/28 09:15:13;;;;;;;10.35;4.65;;;7.80;99.40;;;;;;4265592;27;20118;-59
2023/11/28 09:17:15;;;;;;;9.85;4.72;;;7.90;99.60;;;;;;4265938;27;20505;-57
2023/11/28 09:19:17;;;;;;;14.38;5.28;;;7.90;99.20;;;;;;4265769;27;20047;-57
2023/11/28 09:21:19;;;;;;;6.85;3.90;;;7.90;99.00;;;;;;4265594;27;20126;-58
2023/11/28 09:23:21;;;;;;;12.05;5.22;;;7.80;99.50;;;;;;4264883;27;20050;-58
2023/11/28 09:25:23;;;;;;;11.27;4.50;;;7.80;99.00;;;;;;4247064;27;20054;-59
2023/11/28 09:27:25;;;;;;;9.60;4.35;;;7.80;99.00;;;;;;4247158;27;20481;-59
2023/11/28 09:29:27;;;;;;;16.08;4.10;;;7.90;98.70;;;;;;4267542;27;20415;-60
2023/11/28 09:31:31;;;;;;;9.05;4.38;;;7.80;98.30;;;;;;4267875;27;20388;-65
2023/11/28 09:33:34;;;;;;;10.00;3.80;;;7.90;97.80;;;;;;4264408;27;20095;-58
2023/11/28 09:35:36;;;;;;;7.47;3.88;;;7.80;98.50;;;;;;4249235;27;20058;-60
2023/11/28 09:37:38;;;;;;;10.60;4.10;;;8.00;97.90;;;;;;4247937;27;20047;-58
2023/11/28 09:39:41;;;;;;;10.02;4.15;;;8.00;98.00;;;;;;4248220;27;20689;-60
2023/11/28 09:41:45;;;;;;;6.10;3.63;;;8.00;97.80;;;;;;4250277;27;20122;-62
2023/11/28 09:43:50;;;;;;;11.20;4.40;;;8.10;98.10;;;;;;4249678;27;20043;-59
2023/11/28 09:45:56;;;;;;;11.38;4.60;;;8.10;97.60;;;;;;4250226;27;20489;-62
2023/11/28 09:48:06;;;;;;;10.80;4.18;;;8.10;97.80;;;;;;4268088;27;20046;-59
2023/11/28 09:50:12;;;;;;;6.07;4.15;;;8.10;97.60;;;;;;4267205;27;20507;-65
2023/11/28 09:52:20;;;;;;;10.90;4.65;;;8.20;97.60;;;;;;4265530;27;20046;-63
2023/11/28 09:54:24;;;;;;;8.30;4.30;;;8.20;97.90;;;;;;4265757;27;20070;-59
2023/11/28 09:56:27;;;;;;;8.02;3.90;;;8.20;98.10;;;;;;4265443;27;20123;-60
2023/11/28 09:58:31;;;;;;;5.80;3.53;;;8.30;97.60;;;;;;4265193;27;20117;-57
2023/11/28 10:00:35;;;;;;;13.68;5.20;;;8.20;98.20;;;;;;4264962;27;20542;-57
2023/11/28 10:02:37;;;;;;;11.50;5.00;;;8.30;97.80;;;;;;4265059;27;20050;-59
2023/11/28 10:04:41;;;;;;;8.32;4.35;;;8.40;97.50;;;;;;4264722;27;20048;-58
2023/11/28 10:06:45;;;;;;;6.22;3.88;;;8.50;97.50;;;;;;4264490;27;20456;-57
2023/11/28 10:08:48;;;;;;;9.38;5.25;;;8.60;97.70;;;;;;4264972;27;20050;-57
2023/11/28 10:10:53;;;;;;;10.13;4.47;;;8.70;97.30;;;;;;4264766;27;20473;-59
2023/11/28 10:12:55;;;;;;;8.73;4.47;;;8.70;97.50;;;;;;4264534;27;20128;-58
2023/11/28 10:14:58;;;;;;;11.18;4.45;;;8.80;97.50;;;;;;4264849;27;20039;-58
2023/11/28 10:17:00;;;;;;;12.50;4.30;;;8.70;97.00;;;;;;4264636;27;20464;-58
2023/11/28 10:19:02;;;;;;;10.35;3.35;;;8.70;97.30;;;;;;4264406;27;20043;-58
2023/11/28 10:21:06;;;;;;;8.60;4.15;;;8.80;97.90;;;;;;4264357;27;20498;-58
2023/11/28 10:23:08;;;;;;;10.47;4.53;;;8.70;97.30;;;;;;4264663;27;20042;-58
2023/11/28 10:25:11;;;;;;;6.75;3.80;;;8.80;96.90;;;;;;4264994;27;20053;-59
2023/11/28 10:27:15;;;;;;;5.80;3.88;;;8.90;97.40;;;;;;4267130;27;20467;-59
2023/11/28 10:29:17;;;;;;;8.50;4.35;;;8.90;97.20;;;;;;4264664;27;20054;-59
2023/11/28 10:31:19;;;;;;;9.57;4.72;;;9.10;97.10;;;;;;4264517;27;20042;-59
2023/11/28 10:33:22;;;;;;;12.43;4.13;;;9.10;97.00;;;;;;4263315;27;20472;-64
2023/11/28 10:35:38;;;;;;;6.63;3.33;;;9.10;97.10;;;;;;4247711;28;20039;-59
2023/11/28 10:37:42;;;;;;;10.35;3.75;;;8.90;96.90;;;;;;4248130;28;20152;-59
2023/11/28 10:39:45;;;;;;;3.78;3.28;;;8.80;96.70;;;;;;4247784;28;20500;-58
2023/11/28 10:41:48;;;;;;;4.95;3.35;;;8.80;97.90;;;;;;4247876;28;20039;-59
2023/11/28 10:43:51;;;;;;;9.98;3.58;;;8.60;96.90;;;;;;4247728;28;20078;-59
2023/11/28 10:45:54;;;;;;;12.25;4.30;;;8.70;98.00;;;;;;4247494;27;20043;-58